sensor_id;sensor_type;location;lat;lon;timestamp;temperature;humidity
86008;SHT30;76587;41.936;25.550;2024-02-26T00:01:27;9.69;81.71
86008;SHT30;76587;41.936;25.550;2024-02-26T00:03:53;9.70;81.88
86008;SHT30;76587;41.936;25.550;2024-02-26T00:06:20;9.72;81.89
86008;SHT30;76587;41.936;25.550;2024-02-26T00:08:46;9.73;81.77
86008;SHT30;76587;41.936;25.550;2024-02-26T00:11:11;9.76;81.80
86008;SHT30;76587;41.936;25.550;2024-02-26T00:13:37;9.79;81.74
86008;SHT30;76587;41.936;25.550;2024-02-26T00:16:03;9.82;81.16
86008;SHT30;76587;41.936;25.550;2024-02-26T00:18:29;9.82;80.41
86008;SHT30;76587;41.936;25.550;2024-02-26T00:20:55;9.80;79.66
86008;SHT30;76587;41.936;25.550;2024-02-26T00:23:20;9.76;79.62
86008;SHT30;76587;41.936;25.550;2024-02-26T00:25:46;9.73;79.63
86008;SHT30;76587;41.936;25.550;2024-02-26T00:28:11;9.76;79.31
86008;SHT30;76587;41.936;25.550;2024-02-26T00:30:38;9.79;78.89
86008;SHT30;76587;41.936;25.550;2024-02-26T00:35:48;9.63;79.17
86008;SHT30;76587;41.936;25.550;2024-02-26T00:38:14;9.59;79.24
86008;SHT30;76587;41.936;25.550;2024-02-26T00:40:40;9.49;79.40
86008;SHT30;76587;41.936;25.550;2024-02-26T00:43:08;9.42;79.68
86008;SHT30;76587;41.936;25.550;2024-02-26T00:45:34;9.31;79.95
86008;SHT30;76587;41.936;25.550;2024-02-26T00:47:59;9.18;80.37
86008;SHT30;76587;41.936;25.550;2024-02-26T00:50:31;9.08;80.70
86008;SHT30;76587;41.936;25.550;2024-02-26T00:52:56;9.12;80.67
86008;SHT30;76587;41.936;25.550;2024-02-26T00:55:22;9.02;80.87
86008;SHT30;76587;41.936;25.550;2024-02-26T00:57:47;9.01;81.00
86008;SHT30;76587;41.936;25.550;2024-02-26T01:00:13;8.98;81.30
86008;SHT30;76587;41.936;25.550;2024-02-26T01:02:39;8.97;81.46
86008;SHT30;76587;41.936;25.550;2024-02-26T01:05:05;8.88;81.72
86008;SHT30;76587;41.936;25.550;2024-02-26T01:07:31;8.80;81.82
86008;SHT30;76587;41.936;25.550;2024-02-26T01:10:01;8.74;81.83
86008;SHT30;76587;41.936;25.550;2024-02-26T01:12:26;8.70;82.33
86008;SHT30;76587;41.936;25.550;2024-02-26T01:14:52;8.71;82.63
86008;SHT30;76587;41.936;25.550;2024-02-26T01:17:17;8.72;82.60
86008;SHT30;76587;41.936;25.550;2024-02-26T01:19:43;8.78;82.49
86008;SHT30;76587;41.936;25.550;2024-02-26T01:22:08;8.80;82.42
86008;SHT30;76587;41.936;25.550;2024-02-26T01:24:34;8.82;82.36
86008;SHT30;76587;41.936;25.550;2024-02-26T01:27:00;8.84;82.13
86008;SHT30;76587;41.936;25.550;2024-02-26T01:29:25;8.80;81.89
86008;SHT30;76587;41.936;25.550;2024-02-26T01:31:51;8.75;82.01
86008;SHT30;76587;41.936;25.550;2024-02-26T01:34:16;8.75;82.03
86008;SHT30;76587;41.936;25.550;2024-02-26T01:36:44;8.75;81.84
86008;SHT30;76587;41.936;25.550;2024-02-26T01:39:09;8.71;81.66
86008;SHT30;76587;41.936;25.550;2024-02-26T01:41:38;8.63;81.44
86008;SHT30;76587;41.936;25.550;2024-02-26T01:44:04;8.65;81.40
86008;SHT30;76587;41.936;25.550;2024-02-26T01:46:31;8.60;81.55
86008;SHT30;76587;41.936;25.550;2024-02-26T01:48:58;8.60;81.69
86008;SHT30;76587;41.936;25.550;2024-02-26T01:51:24;8.57;82.01
86008;SHT30;76587;41.936;25.550;2024-02-26T01:53:51;8.54;82.29
86008;SHT30;76587;41.936;25.550;2024-02-26T01:56:17;8.51;82.68
86008;SHT30;76587;41.936;25.550;2024-02-26T01:58:43;8.54;82.78
86008;SHT30;76587;41.936;25.550;2024-02-26T02:01:09;8.57;82.56
86008;SHT30;76587;41.936;25.550;2024-02-26T02:03:35;8.56;82.76
86008;SHT30;76587;41.936;25.550;2024-02-26T02:06:02;8.57;82.89
86008;SHT30;76587;41.936;25.550;2024-02-26T02:08:27;8.57;82.57
86008;SHT30;76587;41.936;25.550;2024-02-26T02:10:53;8.56;82.54
86008;SHT30;76587;41.936;25.550;2024-02-26T02:13:18;8.58;82.40
86008;SHT30;76587;41.936;25.550;2024-02-26T02:15:44;8.65;82.11
86008;SHT30;76587;41.936;25.550;2024-02-26T02:18:09;8.71;81.87
86008;SHT30;76587;41.936;25.550;2024-02-26T02:20:35;8.75;81.66
86008;SHT30;76587;41.936;25.550;2024-02-26T02:23:02;8.82;81.33
86008;SHT30;76587;41.936;25.550;2024-02-26T02:25:27;8.80;81.19
86008;SHT30;76587;41.936;25.550;2024-02-26T02:27:53;8.85;81.11
86008;SHT30;76587;41.936;25.550;2024-02-26T02:30:21;8.82;81.07
86008;SHT30;76587;41.936;25.550;2024-02-26T02:32:46;8.81;81.02
86008;SHT30;76587;41.936;25.550;2024-02-26T02:35:12;8.78;81.15
86008;SHT30;76587;41.936;25.550;2024-02-26T02:37:37;8.80;81.28
86008;SHT30;76587;41.936;25.550;2024-02-26T02:40:03;8.80;81.21
86008;SHT30;76587;41.936;25.550;2024-02-26T02:42:30;8.84;81.23
86008;SHT30;76587;41.936;25.550;2024-02-26T02:44:55;8.88;81.10
86008;SHT30;76587;41.936;25.550;2024-02-26T02:47:21;8.94;80.93
86008;SHT30;76587;41.936;25.550;2024-02-26T02:49:46;9.00;80.79
86008;SHT30;76587;41.936;25.550;2024-02-26T02:52:12;9.00;80.78
86008;SHT30;76587;41.936;25.550;2024-02-26T02:54:37;8.95;80.57
86008;SHT30;76587;41.936;25.550;2024-02-26T02:57:05;8.95;80.33
86008;SHT30;76587;41.936;25.550;2024-02-26T02:59:31;8.97;80.42
86008;SHT30;76587;41.936;25.550;2024-02-26T03:01:56;8.94;80.41
86008;SHT30;76587;41.936;25.550;2024-02-26T03:04:22;8.95;80.41
86008;SHT30;76587;41.936;25.550;2024-02-26T03:06:47;9.04;80.25
86008;SHT30;76587;41.936;25.550;2024-02-26T03:09:13;9.02;80.35
86008;SHT30;76587;41.936;25.550;2024-02-26T03:11:38;9.05;80.41
86008;SHT30;76587;41.936;25.550;2024-02-26T03:14:05;9.11;80.23
86008;SHT30;76587;41.936;25.550;2024-02-26T03:16:32;9.18;80.05
86008;SHT30;76587;41.936;25.550;2024-02-26T03:18:57;9.18;80.02
86008;SHT30;76587;41.936;25.550;2024-02-26T03:21:24;9.11;79.91
86008;SHT30;76587;41.936;25.550;2024-02-26T03:23:50;9.12;79.90
86008;SHT30;76587;41.936;25.550;2024-02-26T03:26:15;9.16;79.61
86008;SHT30;76587;41.936;25.550;2024-02-26T03:28:41;9.16;79.67
86008;SHT30;76587;41.936;25.550;2024-02-26T03:31:06;9.11;79.96
86008;SHT30;76587;41.936;25.550;2024-02-26T03:33:31;9.16;79.70
86008;SHT30;76587;41.936;25.550;2024-02-26T03:35:57;9.16;79.80
86008;SHT30;76587;41.936;25.550;2024-02-26T03:38:22;9.16;79.50
86008;SHT30;76587;41.936;25.550;2024-02-26T03:40:48;9.10;79.74
86008;SHT30;76587;41.936;25.550;2024-02-26T03:43:13;9.04;80.07
86008;SHT30;76587;41.936;25.550;2024-02-26T03:45:39;9.10;79.98
86008;SHT30;76587;41.936;25.550;2024-02-26T03:48:05;9.07;80.08
86008;SHT30;76587;41.936;25.550;2024-02-26T03:50:30;9.02;80.20
86008;SHT30;76587;41.936;25.550;2024-02-26T03:52:56;9.04;80.17
86008;SHT30;76587;41.936;25.550;2024-02-26T03:55:22;8.95;80.52
86008;SHT30;76587;41.936;25.550;2024-02-26T03:57:53;8.92;80.79
86008;SHT30;76587;41.936;25.550;2024-02-26T04:00:19;8.91;80.92
86008;SHT30;76587;41.936;25.550;2024-02-26T04:02:46;8.94;80.89
86008;SHT30;76587;41.936;25.550;2024-02-26T04:05:13;8.92;81.06
86008;SHT30;76587;41.936;25.550;2024-02-26T04:07:40;8.95;80.98
86008;SHT30;76587;41.936;25.550;2024-02-26T04:10:12;8.97;81.27
86008;SHT30;76587;41.936;25.550;2024-02-26T04:12:38;8.97;80.90
86008;SHT30;76587;41.936;25.550;2024-02-26T04:15:05;9.07;80.68
86008;SHT30;76587;41.936;25.550;2024-02-26T04:17:31;9.02;80.97
86008;SHT30;76587;41.936;25.550;2024-02-26T04:19:56;9.05;80.75
86008;SHT30;76587;41.936;25.550;2024-02-26T04:22:22;9.15;80.46
86008;SHT30;76587;41.936;25.550;2024-02-26T04:24:47;9.15;80.23
86008;SHT30;76587;41.936;25.550;2024-02-26T04:27:12;9.15;80.08
86008;SHT30;76587;41.936;25.550;2024-02-26T04:29:38;9.10;79.92
86008;SHT30;76587;41.936;25.550;2024-02-26T04:32:03;9.05;79.56
86008;SHT30;76587;41.936;25.550;2024-02-26T04:34:29;8.95;79.83
86008;SHT30;76587;41.936;25.550;2024-02-26T04:36:55;8.91;80.01
86008;SHT30;76587;41.936;25.550;2024-02-26T04:39:20;8.82;80.29
86008;SHT30;76587;41.936;25.550;2024-02-26T04:41:46;8.75;80.75
86008;SHT30;76587;41.936;25.550;2024-02-26T04:44:11;8.77;80.83
86008;SHT30;76587;41.936;25.550;2024-02-26T04:46:37;8.84;80.76
86008;SHT30;76587;41.936;25.550;2024-02-26T04:49:02;8.81;81.16
86008;SHT30;76587;41.936;25.550;2024-02-26T04:51:28;8.78;81.60
86008;SHT30;76587;41.936;25.550;2024-02-26T04:53:53;8.84;81.75
86008;SHT30;76587;41.936;25.550;2024-02-26T04:56:21;8.88;81.73
86008;SHT30;76587;41.936;25.550;2024-02-26T04:58:46;8.92;81.64
86008;SHT30;76587;41.936;25.550;2024-02-26T05:01:12;8.97;81.54
86008;SHT30;76587;41.936;25.550;2024-02-26T05:03:37;9.02;81.42
86008;SHT30;76587;41.936;25.550;2024-02-26T05:06:04;9.15;80.86
86008;SHT30;76587;41.936;25.550;2024-02-26T05:08:30;9.21;80.55
86008;SHT30;76587;41.936;25.550;2024-02-26T05:10:56;9.14;80.68
86008;SHT30;76587;41.936;25.550;2024-02-26T05:13:21;9.22;80.62
86008;SHT30;76587;41.936;25.550;2024-02-26T05:15:47;9.26;80.44
86008;SHT30;76587;41.936;25.550;2024-02-26T05:18:15;9.29;80.24
86008;SHT30;76587;41.936;25.550;2024-02-26T05:20:40;9.26;80.04
86008;SHT30;76587;41.936;25.550;2024-02-26T05:23:06;9.26;80.01
86008;SHT30;76587;41.936;25.550;2024-02-26T05:25:31;9.28;79.83
86008;SHT30;76587;41.936;25.550;2024-02-26T05:27:57;9.31;79.67
86008;SHT30;76587;41.936;25.550;2024-02-26T05:30:22;9.34;79.51
86008;SHT30;76587;41.936;25.550;2024-02-26T05:32:48;9.35;79.30
86008;SHT30;76587;41.936;25.550;2024-02-26T05:35:13;9.36;79.25
86008;SHT30;76587;41.936;25.550;2024-02-26T05:37:40;9.34;79.38
86008;SHT30;76587;41.936;25.550;2024-02-26T05:40:06;9.38;79.27
86008;SHT30;76587;41.936;25.550;2024-02-26T05:42:31;9.40;79.15
86008;SHT30;76587;41.936;25.550;2024-02-26T05:44:57;9.46;79.02
86008;SHT30;76587;41.936;25.550;2024-02-26T05:47:23;9.56;78.95
86008;SHT30;76587;41.936;25.550;2024-02-26T05:49:48;9.62;78.68
86008;SHT30;76587;41.936;25.550;2024-02-26T05:52:14;9.66;78.17
86008;SHT30;76587;41.936;25.550;2024-02-26T05:54:39;9.76;77.96
86008;SHT30;76587;41.936;25.550;2024-02-26T05:57:05;9.86;77.49
86008;SHT30;76587;41.936;25.550;2024-02-26T05:59:30;9.91;77.27
86008;SHT30;76587;41.936;25.550;2024-02-26T06:01:56;9.96;77.22
86008;SHT30;76587;41.936;25.550;2024-02-26T06:04:21;10.00;77.27
86008;SHT30;76587;41.936;25.550;2024-02-26T06:06:47;10.11;76.82
86008;SHT30;76587;41.936;25.550;2024-02-26T06:09:12;10.18;76.23
86008;SHT30;76587;41.936;25.550;2024-02-26T06:11:38;10.24;75.96
86008;SHT30;76587;41.936;25.550;2024-02-26T06:14:03;10.29;75.73
86008;SHT30;76587;41.936;25.550;2024-02-26T06:16:29;10.37;75.39
86008;SHT30;76587;41.936;25.550;2024-02-26T06:18:54;10.55;74.81
86008;SHT30;76587;41.936;25.550;2024-02-26T06:21:20;10.71;74.10
86008;SHT30;76587;41.936;25.550;2024-02-26T06:23:45;10.87;73.59
86008;SHT30;76587;41.936;25.550;2024-02-26T06:26:11;11.05;73.08
86008;SHT30;76587;41.936;25.550;2024-02-26T06:28:36;11.22;72.70
86008;SHT30;76587;41.936;25.550;2024-02-26T06:31:05;11.47;71.97
86008;SHT30;76587;41.936;25.550;2024-02-26T06:33:31;11.58;71.41
86008;SHT30;76587;41.936;25.550;2024-02-26T06:35:56;11.62;71.38
86008;SHT30;76587;41.936;25.550;2024-02-26T06:38:22;11.77;70.64
86008;SHT30;76587;41.936;25.550;2024-02-26T06:40:47;11.93;70.27
86008;SHT30;76587;41.936;25.550;2024-02-26T06:43:13;12.10;69.69
86008;SHT30;76587;41.936;25.550;2024-02-26T06:45:38;12.23;69.08
86008;SHT30;76587;41.936;25.550;2024-02-26T06:48:04;12.24;69.15
86008;SHT30;76587;41.936;25.550;2024-02-26T06:50:29;12.45;68.59
86008;SHT30;76587;41.936;25.550;2024-02-26T06:52:54;12.57;68.32
86008;SHT30;76587;41.936;25.550;2024-02-26T06:55:20;12.74;67.86
86008;SHT30;76587;41.936;25.550;2024-02-26T06:57:45;13.06;66.75
86008;SHT30;76587;41.936;25.550;2024-02-26T07:00:11;13.19;66.35
86008;SHT30;76587;41.936;25.550;2024-02-26T07:02:42;13.34;65.73
86008;SHT30;76587;41.936;25.550;2024-02-26T07:05:08;13.23;65.78
86008;SHT30;76587;41.936;25.550;2024-02-26T07:07:33;13.15;66.11
86008;SHT30;76587;41.936;25.550;2024-02-26T07:09:59;13.14;66.67
86008;SHT30;76587;41.936;25.550;2024-02-26T07:12:25;13.28;66.11
86008;SHT30;76587;41.936;25.550;2024-02-26T07:14:50;13.29;66.07
86008;SHT30;76587;41.936;25.550;2024-02-26T07:17:17;13.39;65.91
86008;SHT30;76587;41.936;25.550;2024-02-26T07:19:43;13.49;66.02
86008;SHT30;76587;41.936;25.550;2024-02-26T07:22:08;13.48;66.07
86008;SHT30;76587;41.936;25.550;2024-02-26T07:24:34;13.42;66.31
86008;SHT30;76587;41.936;25.550;2024-02-26T07:26:59;13.48;66.56
86008;SHT30;76587;41.936;25.550;2024-02-26T07:29:25;13.59;66.45
86008;SHT30;76587;41.936;25.550;2024-02-26T07:31:50;13.70;66.78
86008;SHT30;76587;41.936;25.550;2024-02-26T07:34:16;13.81;66.61
86008;SHT30;76587;41.936;25.550;2024-02-26T07:36:42;13.96;66.30
86008;SHT30;76587;41.936;25.550;2024-02-26T07:39:07;14.17;65.82
86008;SHT30;76587;41.936;25.550;2024-02-26T07:41:33;14.31;65.54
86008;SHT30;76587;41.936;25.550;2024-02-26T07:43:58;14.42;65.10
86008;SHT30;76587;41.936;25.550;2024-02-26T07:46:24;14.60;64.73
86008;SHT30;76587;41.936;25.550;2024-02-26T07:48:49;14.75;64.27
86008;SHT30;76587;41.936;25.550;2024-02-26T07:51:15;14.93;63.20
86008;SHT30;76587;41.936;25.550;2024-02-26T07:53:40;15.13;61.93
86008;SHT30;76587;41.936;25.550;2024-02-26T07:56:06;15.25;60.95
86008;SHT30;76587;41.936;25.550;2024-02-26T07:58:32;15.28;60.64
86008;SHT30;76587;41.936;25.550;2024-02-26T08:00:58;15.26;60.45
86008;SHT30;76587;41.936;25.550;2024-02-26T08:03:24;15.36;60.09
86008;SHT30;76587;41.936;25.550;2024-02-26T08:05:51;15.39;59.69
86008;SHT30;76587;41.936;25.550;2024-02-26T08:08:16;15.39;59.15
86008;SHT30;76587;41.936;25.550;2024-02-26T08:10:42;15.33;58.75
86008;SHT30;76587;41.936;25.550;2024-02-26T08:13:08;15.28;59.06
86008;SHT30;76587;41.936;25.550;2024-02-26T08:15:34;15.42;58.87
86008;SHT30;76587;41.936;25.550;2024-02-26T08:18:00;15.43;59.14
86008;SHT30;76587;41.936;25.550;2024-02-26T08:20:29;15.60;58.93
86008;SHT30;76587;41.936;25.550;2024-02-26T08:22:55;15.63;58.55
86008;SHT30;76587;41.936;25.550;2024-02-26T08:25:21;15.60;58.69
86008;SHT30;76587;41.936;25.550;2024-02-26T08:27:46;15.47;58.82
86008;SHT30;76587;41.936;25.550;2024-02-26T08:30:14;15.45;59.20
86008;SHT30;76587;41.936;25.550;2024-02-26T08:32:42;15.40;59.50
86008;SHT30;76587;41.936;25.550;2024-02-26T08:35:07;15.74;58.16
86008;SHT30;76587;41.936;25.550;2024-02-26T08:37:33;15.91;57.10
86008;SHT30;76587;41.936;25.550;2024-02-26T08:39:58;15.67;57.35
86008;SHT30;76587;41.936;25.550;2024-02-26T08:42:24;15.77;57.29
86008;SHT30;76587;41.936;25.550;2024-02-26T08:44:49;15.74;57.32
86008;SHT30;76587;41.936;25.550;2024-02-26T08:47:15;15.62;57.18
86008;SHT30;76587;41.936;25.550;2024-02-26T08:49:45;15.55;57.07
86008;SHT30;76587;41.936;25.550;2024-02-26T08:52:10;15.50;57.11
86008;SHT30;76587;41.936;25.550;2024-02-26T08:54:36;15.50;57.38
86008;SHT30;76587;41.936;25.550;2024-02-26T08:57:02;15.45;57.45
86008;SHT30;76587;41.936;25.550;2024-02-26T08:59:28;15.42;57.78
86008;SHT30;76587;41.936;25.550;2024-02-26T09:01:53;15.46;57.46
86008;SHT30;76587;41.936;25.550;2024-02-26T09:04:19;15.63;56.79
86008;SHT30;76587;41.936;25.550;2024-02-26T09:06:44;15.70;56.71
86008;SHT30;76587;41.936;25.550;2024-02-26T09:09:10;15.74;56.85
86008;SHT30;76587;41.936;25.550;2024-02-26T09:11:36;15.83;56.52
86008;SHT30;76587;41.936;25.550;2024-02-26T09:14:01;15.77;56.80
86008;SHT30;76587;41.936;25.550;2024-02-26T09:16:29;15.85;56.71
86008;SHT30;76587;41.936;25.550;2024-02-26T09:18:54;15.89;56.43
86008;SHT30;76587;41.936;25.550;2024-02-26T09:21:20;15.86;56.34
86008;SHT30;76587;41.936;25.550;2024-02-26T09:23:49;15.85;56.53
86008;SHT30;76587;41.936;25.550;2024-02-26T09:26:15;15.90;56.24
86008;SHT30;76587;41.936;25.550;2024-02-26T09:28:40;15.82;56.63
86008;SHT30;76587;41.936;25.550;2024-02-26T09:31:06;16.00;56.32
86008;SHT30;76587;41.936;25.550;2024-02-26T09:33:32;15.89;56.32
86008;SHT30;76587;41.936;25.550;2024-02-26T09:35:58;16.03;55.94
86008;SHT30;76587;41.936;25.550;2024-02-26T09:38:23;16.13;55.42
86008;SHT30;76587;41.936;25.550;2024-02-26T09:40:49;16.17;55.25
86008;SHT30;76587;41.936;25.550;2024-02-26T09:43:17;16.27;54.96
86008;SHT30;76587;41.936;25.550;2024-02-26T09:45:47;16.30;54.85
86008;SHT30;76587;41.936;25.550;2024-02-26T09:48:12;16.30;54.27
86008;SHT30;76587;41.936;25.550;2024-02-26T09:50:42;16.28;53.75
86008;SHT30;76587;41.936;25.550;2024-02-26T09:53:08;16.41;53.57
86008;SHT30;76587;41.936;25.550;2024-02-26T09:55:36;16.40;53.71
86008;SHT30;76587;41.936;25.550;2024-02-26T09:58:01;16.64;53.53
86008;SHT30;76587;41.936;25.550;2024-02-26T10:00:30;16.91;52.34
86008;SHT30;76587;41.936;25.550;2024-02-26T10:03:04;17.04;51.82
86008;SHT30;76587;41.936;25.550;2024-02-26T10:05:32;17.46;50.90
86008;SHT30;76587;41.936;25.550;2024-02-26T10:07:59;17.76;49.80
86008;SHT30;76587;41.936;25.550;2024-02-26T10:10:28;18.00;49.27
86008;SHT30;76587;41.936;25.550;2024-02-26T10:12:54;18.24;48.44
86008;SHT30;76587;41.936;25.550;2024-02-26T10:15:19;18.21;48.00
86008;SHT30;76587;41.936;25.550;2024-02-26T10:17:45;18.34;47.63
86008;SHT30;76587;41.936;25.550;2024-02-26T10:20:15;18.55;47.25
86008;SHT30;76587;41.936;25.550;2024-02-26T10:22:41;18.67;46.88
86008;SHT30;76587;41.936;25.550;2024-02-26T10:25:08;18.73;46.56
86008;SHT30;76587;41.936;25.550;2024-02-26T10:27:34;18.65;46.78
86008;SHT30;76587;41.936;25.550;2024-02-26T10:30:23;18.45;47.06
86008;SHT30;76587;41.936;25.550;2024-02-26T10:32:49;18.58;46.78
86008;SHT30;76587;41.936;25.550;2024-02-26T10:35:18;18.49;47.08
86008;SHT30;76587;41.936;25.550;2024-02-26T10:37:46;18.52;46.84
86008;SHT30;76587;41.936;25.550;2024-02-26T10:40:13;18.34;47.36
86008;SHT30;76587;41.936;25.550;2024-02-26T10:42:39;18.28;47.46
86008;SHT30;76587;41.936;25.550;2024-02-26T10:45:05;18.31;46.38
86008;SHT30;76587;41.936;25.550;2024-02-26T10:47:31;18.37;46.60
86008;SHT30;76587;41.936;25.550;2024-02-26T10:49:59;18.38;46.79
86008;SHT30;76587;41.936;25.550;2024-02-26T10:52:25;18.48;46.60
86008;SHT30;76587;41.936;25.550;2024-02-26T10:54:54;18.57;45.97
86008;SHT30;76587;41.936;25.550;2024-02-26T10:57:19;18.52;45.66
86008;SHT30;76587;41.936;25.550;2024-02-26T10:59:46;18.54;46.41
86008;SHT30;76587;41.936;25.550;2024-02-26T11:02:13;18.44;46.83
86008;SHT30;76587;41.936;25.550;2024-02-26T11:04:39;18.34;46.69
86008;SHT30;76587;41.936;25.550;2024-02-26T11:07:05;18.27;46.81
86008;SHT30;76587;41.936;25.550;2024-02-26T11:09:31;18.18;46.60
86008;SHT30;76587;41.936;25.550;2024-02-26T11:11:58;18.08;46.46
86008;SHT30;76587;41.936;25.550;2024-02-26T11:14:25;18.25;45.73
86008;SHT30;76587;41.936;25.550;2024-02-26T11:16:51;18.34;45.65
86008;SHT30;76587;41.936;25.550;2024-02-26T11:19:18;18.34;44.68
86008;SHT30;76587;41.936;25.550;2024-02-26T11:21:44;18.30;44.56
86008;SHT30;76587;41.936;25.550;2024-02-26T11:24:12;18.33;44.64
86008;SHT30;76587;41.936;25.550;2024-02-26T11:26:45;18.38;43.98
86008;SHT30;76587;41.936;25.550;2024-02-26T11:29:19;18.45;43.18
86008;SHT30;76587;41.936;25.550;2024-02-26T11:31:46;18.49;44.31
86008;SHT30;76587;41.936;25.550;2024-02-26T11:34:12;18.41;44.86
86008;SHT30;76587;41.936;25.550;2024-02-26T11:36:38;18.55;44.28
86008;SHT30;76587;41.936;25.550;2024-02-26T11:39:04;18.73;44.12
86008;SHT30;76587;41.936;25.550;2024-02-26T11:41:31;18.81;44.63
86008;SHT30;76587;41.936;25.550;2024-02-26T11:44:03;18.88;43.29
86008;SHT30;76587;41.936;25.550;2024-02-26T11:46:39;19.13;42.95
86008;SHT30;76587;41.936;25.550;2024-02-26T11:51:54;19.55;40.80
86008;SHT30;76587;41.936;25.550;2024-02-26T11:54:44;19.25;40.75
86008;SHT30;76587;41.936;25.550;2024-02-26T11:57:30;19.30;40.98
86008;SHT30;76587;41.936;25.550;2024-02-26T11:59:57;19.56;40.82
86008;SHT30;76587;41.936;25.550;2024-02-26T12:02:51;19.71;40.34
86008;SHT30;76587;41.936;25.550;2024-02-26T12:05:23;19.87;40.09
86008;SHT30;76587;41.936;25.550;2024-02-26T12:07:53;19.80;40.37
86008;SHT30;76587;41.936;25.550;2024-02-26T12:10:31;19.84;40.60
86008;SHT30;76587;41.936;25.550;2024-02-26T12:13:30;19.88;40.45
86008;SHT30;76587;41.936;25.550;2024-02-26T12:15:57;19.83;41.38
86008;SHT30;76587;41.936;25.550;2024-02-26T12:18:23;19.70;41.20
86008;SHT30;76587;41.936;25.550;2024-02-26T12:20:59;19.65;41.67
86008;SHT30;76587;41.936;25.550;2024-02-26T12:23:26;19.57;42.07
86008;SHT30;76587;41.936;25.550;2024-02-26T12:25:52;19.53;42.14
86008;SHT30;76587;41.936;25.550;2024-02-26T12:28:17;19.49;42.11
86008;SHT30;76587;41.936;25.550;2024-02-26T12:30:43;19.33;42.20
86008;SHT30;76587;41.936;25.550;2024-02-26T12:33:08;19.18;40.63
86008;SHT30;76587;41.936;25.550;2024-02-26T12:35:35;19.01;40.39
86008;SHT30;76587;41.936;25.550;2024-02-26T12:38:00;18.85;41.34
86008;SHT30;76587;41.936;25.550;2024-02-26T12:40:26;18.91;41.09
86008;SHT30;76587;41.936;25.550;2024-02-26T12:42:53;18.89;41.69
86008;SHT30;76587;41.936;25.550;2024-02-26T12:45:20;18.91;41.74
86008;SHT30;76587;41.936;25.550;2024-02-26T12:47:46;18.87;41.36
86008;SHT30;76587;41.936;25.550;2024-02-26T12:50:12;18.91;41.26
86008;SHT30;76587;41.936;25.550;2024-02-26T12:52:46;18.61;41.02
86008;SHT30;76587;41.936;25.550;2024-02-26T12:55:17;18.58;41.41
86008;SHT30;76587;41.936;25.550;2024-02-26T12:57:44;18.54;41.73
86008;SHT30;76587;41.936;25.550;2024-02-26T13:00:16;18.61;41.94
86008;SHT30;76587;41.936;25.550;2024-02-26T13:02:42;18.72;42.26
86008;SHT30;76587;41.936;25.550;2024-02-26T13:05:12;18.75;42.53
86008;SHT30;76587;41.936;25.550;2024-02-26T13:07:45;18.75;42.79
86008;SHT30;76587;41.936;25.550;2024-02-26T13:10:14;18.82;43.02
86008;SHT30;76587;41.936;25.550;2024-02-26T13:12:48;18.85;43.03
86008;SHT30;76587;41.936;25.550;2024-02-26T13:15:22;18.88;43.23
86008;SHT30;76587;41.936;25.550;2024-02-26T13:17:48;18.81;43.59
86008;SHT30;76587;41.936;25.550;2024-02-26T13:20:28;18.72;43.82
86008;SHT30;76587;41.936;25.550;2024-02-26T13:23:04;18.73;43.77
86008;SHT30;76587;41.936;25.550;2024-02-26T13:25:31;18.58;44.25
86008;SHT30;76587;41.936;25.550;2024-02-26T13:28:13;18.58;44.20
86008;SHT30;76587;41.936;25.550;2024-02-26T13:30:39;18.64;44.35
86008;SHT30;76587;41.936;25.550;2024-02-26T13:33:12;18.58;44.07
86008;SHT30;76587;41.936;25.550;2024-02-26T13:35:38;18.52;44.29
86008;SHT30;76587;41.936;25.550;2024-02-26T13:38:08;18.54;44.23
86008;SHT30;76587;41.936;25.550;2024-02-26T13:40:35;18.47;44.18
86008;SHT30;76587;41.936;25.550;2024-02-26T13:43:01;18.54;43.87
86008;SHT30;76587;41.936;25.550;2024-02-26T13:45:26;18.57;43.79
86008;SHT30;76587;41.936;25.550;2024-02-26T13:47:52;18.38;44.03
86008;SHT30;76587;41.936;25.550;2024-02-26T13:50:18;18.24;44.03
86008;SHT30;76587;41.936;25.550;2024-02-26T13:52:47;18.21;44.38
86008;SHT30;76587;41.936;25.550;2024-02-26T13:55:13;18.08;44.92
86008;SHT30;76587;41.936;25.550;2024-02-26T13:57:40;18.00;44.91
86008;SHT30;76587;41.936;25.550;2024-02-26T14:00:06;18.11;44.91
86008;SHT30;76587;41.936;25.550;2024-02-26T14:02:32;18.10;45.10
86008;SHT30;76587;41.936;25.550;2024-02-26T14:05:02;17.97;45.05
86008;SHT30;76587;41.936;25.550;2024-02-26T14:07:28;17.93;45.56
86008;SHT30;76587;41.936;25.550;2024-02-26T14:09:55;17.96;45.33
86008;SHT30;76587;41.936;25.550;2024-02-26T14:12:20;17.93;45.16
86008;SHT30;76587;41.936;25.550;2024-02-26T14:14:46;17.90;45.39
86008;SHT30;76587;41.936;25.550;2024-02-26T14:17:14;18.05;45.25
86008;SHT30;76587;41.936;25.550;2024-02-26T14:19:41;18.11;45.01
86008;SHT30;76587;41.936;25.550;2024-02-26T14:22:11;18.10;45.00
86008;SHT30;76587;41.936;25.550;2024-02-26T14:24:36;17.90;45.50
86008;SHT30;76587;41.936;25.550;2024-02-26T14:27:02;17.98;45.26
86008;SHT30;76587;41.936;25.550;2024-02-26T14:29:28;17.93;45.32
86008;SHT30;76587;41.936;25.550;2024-02-26T14:31:53;17.91;45.22
86008;SHT30;76587;41.936;25.550;2024-02-26T14:34:19;17.91;45.48
86008;SHT30;76587;41.936;25.550;2024-02-26T14:36:44;17.93;45.50
86008;SHT30;76587;41.936;25.550;2024-02-26T14:39:10;17.89;45.79
86008;SHT30;76587;41.936;25.550;2024-02-26T14:41:39;17.83;46.22
86008;SHT30;76587;41.936;25.550;2024-02-26T14:44:04;17.84;45.65
86008;SHT30;76587;41.936;25.550;2024-02-26T14:46:30;17.65;46.09
86008;SHT30;76587;41.936;25.550;2024-02-26T14:48:55;17.54;46.35
86008;SHT30;76587;41.936;25.550;2024-02-26T14:51:24;17.52;46.55
86008;SHT30;76587;41.936;25.550;2024-02-26T14:53:50;17.52;46.45
86008;SHT30;76587;41.936;25.550;2024-02-26T14:56:15;17.43;46.58
86008;SHT30;76587;41.936;25.550;2024-02-26T14:58:41;17.32;47.08
86008;SHT30;76587;41.936;25.550;2024-02-26T15:01:06;17.16;47.54
86008;SHT30;76587;41.936;25.550;2024-02-26T15:03:32;17.12;47.76
86008;SHT30;76587;41.936;25.550;2024-02-26T15:05:58;17.11;47.52
86008;SHT30;76587;41.936;25.550;2024-02-26T15:08:23;17.11;47.53
86008;SHT30;76587;41.936;25.550;2024-02-26T15:10:49;16.94;48.24
86008;SHT30;76587;41.936;25.550;2024-02-26T15:13:15;16.91;48.59
86008;SHT30;76587;41.936;25.550;2024-02-26T15:15:41;16.84;48.47
86008;SHT30;76587;41.936;25.550;2024-02-26T15:18:08;16.67;49.26
86008;SHT30;76587;41.936;25.550;2024-02-26T15:20:36;16.58;49.25
86008;SHT30;76587;41.936;25.550;2024-02-26T15:23:02;16.45;49.74
86008;SHT30;76587;41.936;25.550;2024-02-26T15:25:27;16.32;50.00